createdAt,value
2022-10-08T00:01:10.782Z,12.00
2022-10-08T00:03:40.704Z,11.90
2022-10-08T00:06:16.915Z,12.00
2022-10-08T00:08:48.200Z,12.00
2022-10-08T00:11:17.832Z,11.90
2022-10-08T00:13:47.901Z,11.80
2022-10-08T00:16:26.992Z,11.70
2022-10-08T00:18:57.278Z,11.70
2022-10-08T00:21:27.960Z,11.50
2022-10-08T00:23:54.820Z,11.70
2022-10-08T00:26:24.330Z,11.50
2022-10-08T00:28:52.955Z,11.60
2022-10-08T00:31:32.822Z,11.50
2022-10-08T00:34:02.385Z,11.40
2022-10-08T00:36:34.320Z,11.50
2022-10-08T00:39:05.313Z,11.40
2022-10-08T00:41:35.820Z,11.40
2022-10-08T00:44:03.799Z,11.50
2022-10-08T00:46:48.562Z,11.40
2022-10-08T00:49:18.926Z,11.50
2022-10-08T00:51:50.507Z,11.60
2022-10-08T00:54:19.406Z,11.50
2022-10-08T00:56:48.950Z,11.40
2022-10-08T00:59:16.773Z,11.50
2022-10-08T01:01:44.186Z,11.50
2022-10-08T01:04:12.564Z,11.60
2022-10-08T01:07:00.190Z,11.60
2022-10-08T01:09:35.723Z,11.50
2022-10-08T01:12:14.230Z,11.60
2022-10-08T01:15:10.898Z,11.50
2022-10-08T01:18:01.278Z,11.60
2022-10-08T01:20:33.583Z,11.60
2022-10-08T01:23:31.288Z,11.50
2022-10-08T01:26:25.384Z,11.50
2022-10-08T01:29:01.113Z,11.50
2022-10-08T01:31:35.747Z,11.50
2022-10-08T01:34:15.918Z,11.50
2022-10-08T01:36:46.937Z,11.50
2022-10-08T01:39:18.117Z,11.50
2022-10-08T01:41:56.658Z,11.40
2022-10-08T01:44:33.973Z,11.40
2022-10-08T01:47:05.296Z,11.40
2022-10-08T01:49:40.509Z,11.30
2022-10-08T01:52:13.849Z,11.40
2022-10-08T01:54:44.436Z,11.30
2022-10-08T01:57:12.020Z,11.30
2022-10-08T01:59:56.521Z,11.30
2022-10-08T02:02:25.596Z,11.30
2022-10-08T02:04:54.894Z,11.40
2022-10-08T02:07:33.737Z,11.50
2022-10-08T02:10:21.338Z,11.50
2022-10-08T02:12:48.212Z,11.60
2022-10-08T02:15:35.761Z,11.60
2022-10-08T02:18:14.874Z,11.70
2022-10-08T02:20:55.662Z,11.80
2022-10-08T02:23:43.169Z,11.80
2022-10-08T02:26:20.061Z,11.90
2022-10-08T02:28:53.225Z,12.00
2022-10-08T02:31:35.682Z,12.10
2022-10-08T02:34:17.606Z,12.20
2022-10-08T02:36:53.741Z,12.20
2022-10-08T02:39:23.823Z,12.30
2022-10-08T02:41:55.083Z,12.30
2022-10-08T02:44:38.839Z,12.30
2022-10-08T02:47:09.921Z,12.40
2022-10-08T02:49:44.118Z,12.50
2022-10-08T02:52:11.699Z,12.60
2022-10-08T02:54:41.741Z,12.60
2022-10-08T02:57:11.069Z,12.60
2022-10-08T02:59:37.823Z,12.70
2022-10-08T03:02:05.741Z,12.70
2022-10-08T03:04:37.345Z,12.70
2022-10-08T03:07:05.277Z,12.70
2022-10-08T03:09:38.887Z,12.70
2022-10-08T03:12:06.666Z,12.70
2022-10-08T03:14:39.963Z,12.70
2022-10-08T03:17:08.460Z,12.70
2022-10-08T03:19:35.443Z,12.70
2022-10-08T03:22:02.860Z,12.70
2022-10-08T03:24:29.413Z,12.70
2022-10-08T03:26:56.045Z,12.70
2022-10-08T03:29:22.632Z,12.70
2022-10-08T03:31:50.110Z,12.60
2022-10-08T03:34:16.922Z,12.60
2022-10-08T03:36:43.478Z,12.60
2022-10-08T03:39:11.865Z,12.40
2022-10-08T03:41:38.674Z,12.20
2022-10-08T03:44:09.060Z,12.00
2022-10-08T03:46:35.732Z,11.90
2022-10-08T03:49:02.384Z,11.80
2022-10-08T03:51:28.994Z,11.70
2022-10-08T03:53:55.528Z,11.70
2022-10-08T03:56:25.951Z,11.60
2022-10-08T03:58:58.070Z,11.60
2022-10-08T04:01:26.111Z,11.60
2022-10-08T04:03:52.975Z,11.60
2022-10-08T04:06:20.128Z,11.60
2022-10-08T04:08:46.686Z,11.60
2022-10-08T04:11:15.647Z,11.60
2022-10-08T04:13:42.581Z,11.60
2022-10-08T04:16:13.212Z,11.60
2022-10-08T04:18:40.346Z,11.60
2022-10-08T04:21:10.333Z,11.60
2022-10-08T04:23:38.452Z,11.60
2022-10-08T04:26:05.437Z,11.60
2022-10-08T04:28:37.566Z,11.60
2022-10-08T04:31:11.380Z,11.60
2022-10-08T04:33:38.420Z,11.60
2022-10-08T04:36:17.614Z,11.70
2022-10-08T04:38:44.989Z,11.70
2022-10-08T04:41:16.634Z,11.60
2022-10-08T04:43:44.640Z,11.60
2022-10-08T04:46:14.198Z,11.60
2022-10-08T04:48:45.275Z,11.60
2022-10-08T04:51:11.883Z,11.50
2022-10-08T04:53:38.677Z,11.50
2022-10-08T04:56:17.468Z,11.50
2022-10-08T04:58:44.802Z,11.60
2022-10-08T05:01:14.386Z,11.60
2022-10-08T05:03:43.566Z,11.60
2022-10-08T05:06:10.751Z,11.60
2022-10-08T05:08:37.886Z,11.60
2022-10-08T05:11:04.807Z,11.50
2022-10-08T05:13:31.567Z,11.50
2022-10-08T05:16:05.837Z,11.50
2022-10-08T05:18:33.714Z,11.60
2022-10-08T05:21:08.654Z,11.60
2022-10-08T05:23:36.360Z,11.60
2022-10-08T05:26:12.443Z,11.60
2022-10-08T05:28:39.077Z,11.60
2022-10-08T05:31:05.797Z,11.50
2022-10-08T05:33:32.355Z,11.50
2022-10-08T05:36:03.358Z,11.40
2022-10-08T05:38:34.643Z,11.40
2022-10-08T05:41:09.978Z,11.50
2022-10-08T05:43:36.638Z,11.60
2022-10-08T05:46:03.723Z,11.50
2022-10-08T05:48:31.495Z,11.60
2022-10-08T05:51:04.792Z,11.60
2022-10-08T05:53:31.877Z,11.60
2022-10-08T05:56:02.823Z,11.60
2022-10-08T05:58:30.570Z,11.70
2022-10-08T06:01:01.891Z,11.70
2022-10-08T06:03:28.713Z,11.70
2022-10-08T06:06:01.021Z,11.70
2022-10-08T06:08:27.774Z,11.70
2022-10-08T06:10:55.426Z,11.70
2022-10-08T06:13:22.949Z,11.70
2022-10-08T06:16:00.813Z,11.80
2022-10-08T06:18:29.759Z,11.90
2022-10-08T06:20:56.607Z,11.90
2022-10-08T06:23:24.338Z,12.00
2022-10-08T06:25:50.892Z,12.00
2022-10-08T06:28:17.594Z,12.10
2022-10-08T06:30:44.184Z,12.10
2022-10-08T06:33:11.242Z,12.10
2022-10-08T06:35:38.449Z,12.20
2022-10-08T06:38:05.389Z,12.20
2022-10-08T06:40:38.860Z,12.30
2022-10-08T06:43:07.589Z,12.40
2022-10-08T06:45:38.931Z,12.30
2022-10-08T06:48:05.902Z,12.30
2022-10-08T06:50:33.481Z,12.40
2022-10-08T06:53:00.082Z,12.30
2022-10-08T06:55:26.839Z,12.40
2022-10-08T06:57:53.407Z,12.40
2022-10-08T07:00:20.181Z,12.50
2022-10-08T07:02:46.966Z,12.50
2022-10-08T07:05:13.822Z,12.40
2022-10-08T07:07:40.410Z,12.50
2022-10-08T07:10:07.299Z,12.60
2022-10-08T07:12:33.946Z,12.60
2022-10-08T07:15:00.502Z,12.80
2022-10-08T07:17:28.852Z,12.90
2022-10-08T07:19:56.381Z,13.10
2022-10-08T07:22:23.939Z,13.00
2022-10-08T07:24:51.363Z,13.20
2022-10-08T07:27:19.397Z,13.40
2022-10-08T07:29:45.978Z,13.40
2022-10-08T07:32:12.510Z,13.30
2022-10-08T07:34:39.123Z,13.30
2022-10-08T07:37:05.659Z,13.30
2022-10-08T07:39:32.187Z,13.50
2022-10-08T07:41:58.731Z,13.50
2022-10-08T07:44:25.277Z,13.50
2022-10-08T07:46:53.596Z,13.60
2022-10-08T07:49:21.105Z,14.00
2022-10-08T07:51:48.014Z,14.10
2022-10-08T07:54:17.524Z,13.90
2022-10-08T07:56:44.190Z,14.00
2022-10-08T07:59:14.854Z,14.60
2022-10-08T08:01:42.443Z,14.60
2022-10-08T08:04:10.643Z,15.10
2022-10-08T08:06:47.330Z,15.10
2022-10-08T08:09:18.133Z,15.40
2022-10-08T08:11:46.270Z,15.60
2022-10-08T08:14:12.856Z,15.50
2022-10-08T08:16:40.180Z,15.60
2022-10-08T08:19:07.217Z,15.90
2022-10-08T08:21:37.094Z,16.20
2022-10-08T08:24:12.004Z,15.80
2022-10-08T08:26:40.376Z,15.70
2022-10-08T08:29:11.167Z,15.50
2022-10-08T08:31:43.051Z,15.70
2022-10-08T08:34:12.893Z,16.00
2022-10-08T08:36:42.540Z,16.00
2022-10-08T08:39:14.927Z,16.00
2022-10-08T08:42:00.242Z,16.30
2022-10-08T08:44:32.768Z,16.30
2022-10-08T08:47:16.229Z,16.60
2022-10-08T08:49:48.914Z,17.00
2022-10-08T08:52:18.667Z,17.30
2022-10-08T08:54:50.113Z,17.70
2022-10-08T08:57:37.118Z,17.30
2022-10-08T09:00:15.497Z,17.00
2022-10-08T09:03:06.294Z,16.70
2022-10-08T09:05:39.295Z,16.80
2022-10-08T09:08:23.896Z,16.90
2022-10-08T09:11:02.714Z,17.00
2022-10-08T09:13:44.542Z,16.50
2022-10-08T09:16:13.268Z,15.90
2022-10-08T09:18:46.386Z,15.80
2022-10-08T09:21:13.045Z,15.80
2022-10-08T09:23:39.569Z,15.90
2022-10-08T09:26:15.288Z,15.60
2022-10-08T09:28:47.927Z,15.60
2022-10-08T09:31:39.612Z,16.40
2022-10-08T09:34:18.081Z,17.10
2022-10-08T09:37:03.052Z,17.70
2022-10-08T09:39:37.380Z,17.40
2022-10-08T09:42:06.728Z,16.80
2022-10-08T09:44:46.484Z,16.50
2022-10-08T09:47:16.692Z,16.30
2022-10-08T09:49:44.835Z,16.50
2022-10-08T09:52:19.466Z,16.40
2022-10-08T09:55:06.705Z,16.20
2022-10-08T09:57:36.425Z,16.50
2022-10-08T10:00:06.172Z,17.00
2022-10-08T10:02:35.327Z,17.90
2022-10-08T10:05:07.897Z,18.30
2022-10-08T10:07:44.461Z,18.20
2022-10-08T10:10:29.199Z,18.20
2022-10-08T10:13:09.465Z,17.30
2022-10-08T10:15:50.593Z,16.70
2022-10-08T10:18:20.738Z,17.20
2022-10-08T10:20:55.046Z,17.50
2022-10-08T10:23:46.158Z,16.80
2022-10-08T10:26:23.859Z,16.20
2022-10-08T10:28:58.038Z,16.80
2022-10-08T10:31:37.864Z,17.50
2022-10-08T10:34:14.394Z,18.40
2022-10-08T10:36:45.871Z,19.40
2022-10-08T10:39:53.865Z,20.10
2022-10-08T10:42:42.956Z,20.20
2022-10-08T10:45:27.630Z,19.50
2022-10-08T10:47:54.640Z,18.40
2022-10-08T10:50:35.546Z,17.70
2022-10-08T10:53:21.961Z,17.60
2022-10-08T10:56:04.743Z,17.20
2022-10-08T10:58:43.205Z,16.80
2022-10-08T11:01:24.771Z,16.10
2022-10-08T11:03:59.856Z,16.70
2022-10-08T11:06:52.386Z,17.00
2022-10-08T11:09:46.573Z,17.70
2022-10-08T11:12:46.927Z,18.50
2022-10-08T11:15:29.978Z,18.90
2022-10-08T11:18:12.254Z,19.60
2022-10-08T11:20:57.612Z,19.90
2022-10-08T11:23:31.299Z,20.10
2022-10-08T11:26:21.786Z,19.80
2022-10-08T11:29:07.112Z,20.00
2022-10-08T11:31:40.159Z,20.40
2022-10-08T11:34:23.810Z,20.30
2022-10-08T11:37:13.586Z,20.20
2022-10-08T11:40:14.929Z,19.80
2022-10-08T11:43:13.520Z,19.90
2022-10-08T11:45:46.188Z,19.90
2022-10-08T11:48:34.661Z,20.10
2022-10-08T11:51:19.210Z,20.00
2022-10-08T11:54:18.378Z,20.50
2022-10-08T11:56:48.478Z,20.90
2022-10-08T12:00:03.127Z,21.00
2022-10-08T12:02:42.565Z,20.90
2022-10-08T12:05:34.592Z,21.20
2022-10-08T12:08:06.478Z,21.00
2022-10-08T12:10:33.942Z,20.70
2022-10-08T12:13:26.401Z,21.10
2022-10-08T12:15:54.774Z,21.00
2022-10-08T12:18:26.370Z,20.90
2022-10-08T12:21:16.598Z,21.10
2022-10-08T12:23:44.255Z,21.20
2022-10-08T12:26:13.454Z,20.90
2022-10-08T12:28:42.874Z,21.30
2022-10-08T12:31:24.566Z,21.40
2022-10-08T12:33:57.298Z,21.20
2022-10-08T12:36:39.073Z,21.30
2022-10-08T12:39:32.588Z,21.60
2022-10-08T12:42:06.119Z,21.40
2022-10-08T12:44:38.483Z,21.50
2022-10-08T12:47:29.028Z,22.20
2022-10-08T12:50:02.397Z,21.70
2022-10-08T12:52:34.870Z,20.30
2022-10-08T12:55:03.465Z,19.60
2022-10-08T12:57:34.715Z,19.50
2022-10-08T13:00:07.753Z,20.30
2022-10-08T13:02:42.696Z,21.10
2022-10-08T13:05:33.441Z,21.20
2022-10-08T13:08:37.176Z,21.30
2022-10-08T13:11:08.226Z,21.40
2022-10-08T13:13:41.031Z,21.50
2022-10-08T13:16:10.801Z,20.80
2022-10-08T13:18:39.597Z,19.70
2022-10-08T13:21:23.570Z,19.30
2022-10-08T13:23:50.333Z,19.50
2022-10-08T13:26:46.072Z,19.00
2022-10-08T13:29:29.844Z,18.70
2022-10-08T13:31:57.925Z,18.00
2022-10-08T13:34:28.609Z,17.60
2022-10-08T13:36:58.559Z,17.20
2022-10-08T13:39:33.171Z,16.90
2022-10-08T13:42:04.463Z,16.60
2022-10-08T13:44:33.425Z,17.30
2022-10-08T13:47:03.722Z,18.60
2022-10-08T13:49:32.744Z,19.30
2022-10-08T13:52:00.963Z,18.80
2022-10-08T13:54:30.409Z,19.20
2022-10-08T13:56:57.502Z,20.00
2022-10-08T13:59:29.569Z,20.50
2022-10-08T14:01:57.484Z,20.90
2022-10-08T14:04:24.112Z,21.30
2022-10-08T14:06:53.831Z,21.40
2022-10-08T14:09:23.330Z,21.40
2022-10-08T14:11:55.858Z,21.50
2022-10-08T14:14:27.102Z,21.80
2022-10-08T14:16:54.162Z,21.80
2022-10-08T14:19:21.327Z,21.30
2022-10-08T14:21:55.115Z,21.30
2022-10-08T14:24:21.660Z,21.50
2022-10-08T14:26:48.262Z,21.40
2022-10-08T14:29:14.807Z,21.40
2022-10-08T14:31:41.635Z,21.30
2022-10-08T14:34:08.595Z,21.20
2022-10-08T14:36:37.334Z,21.50
2022-10-08T14:39:04.784Z,21.70
2022-10-08T14:41:32.442Z,21.50
2022-10-08T14:43:59.497Z,21.80
2022-10-08T14:46:26.280Z,21.10
2022-10-08T14:48:52.967Z,21.70
2022-10-08T14:51:19.529Z,21.60
2022-10-08T14:53:46.390Z,21.90
2022-10-08T14:56:13.239Z,22.10
2022-10-08T14:58:40.256Z,22.20
2022-10-08T15:01:07.273Z,22.80
2022-10-08T15:03:34.145Z,22.50
2022-10-08T15:06:01.121Z,22.60
2022-10-08T15:08:28.599Z,23.10
2022-10-08T15:10:55.368Z,22.70
2022-10-08T15:13:22.258Z,22.90
2022-10-08T15:15:48.819Z,23.10
2022-10-08T15:18:15.501Z,23.10
2022-10-08T15:20:42.106Z,23.20
2022-10-08T15:23:10.317Z,22.50
2022-10-08T15:25:37.131Z,22.00
2022-10-08T15:28:03.829Z,21.30
2022-10-08T15:30:30.418Z,20.90
2022-10-08T15:33:01.645Z,21.00
2022-10-08T15:35:28.179Z,20.80
2022-10-08T15:37:54.745Z,20.60
2022-10-08T15:40:21.278Z,20.20
2022-10-08T15:42:51.648Z,20.00
2022-10-08T15:45:18.185Z,20.00
2022-10-08T15:47:45.532Z,19.70
2022-10-08T15:50:12.070Z,19.60
2022-10-08T15:52:42.929Z,19.70
2022-10-08T15:55:12.792Z,19.50
2022-10-08T15:57:39.343Z,19.60
2022-10-08T16:00:06.467Z,19.60
2022-10-08T16:02:33.044Z,19.60
2022-10-08T16:04:59.591Z,19.30
2022-10-08T16:07:26.135Z,19.40
2022-10-08T16:09:52.863Z,19.30
2022-10-08T16:12:19.649Z,19.10
2022-10-08T16:14:46.187Z,19.00
2022-10-08T16:17:13.075Z,19.00
2022-10-08T16:19:39.733Z,18.80
2022-10-08T16:22:07.854Z,18.70
2022-10-08T16:24:34.429Z,18.10
2022-10-08T16:27:01.041Z,17.80
2022-10-08T16:29:27.670Z,17.60
2022-10-08T16:31:54.219Z,17.40
2022-10-08T16:34:22.554Z,17.20
2022-10-08T16:36:49.681Z,17.10
2022-10-08T16:39:19.136Z,16.70
2022-10-08T16:41:46.721Z,16.30
2022-10-08T16:44:16.199Z,16.00
2022-10-08T16:46:45.333Z,15.90
2022-10-08T16:49:24.526Z,15.50
2022-10-08T16:51:54.444Z,15.20
2022-10-08T16:54:21.275Z,14.80
2022-10-08T16:56:47.930Z,14.50
2022-10-08T16:59:20.358Z,14.20
2022-10-08T17:01:50.168Z,13.90
2022-10-08T17:04:17.870Z,13.60
2022-10-08T17:06:45.095Z,13.40
2022-10-08T17:09:11.750Z,13.20
2022-10-08T17:11:38.345Z,13.00
2022-10-08T17:14:07.471Z,12.70
2022-10-08T17:16:35.594Z,12.50
2022-10-08T17:19:03.657Z,12.30
2022-10-08T17:21:31.201Z,12.10
2022-10-08T17:23:58.476Z,11.90
2022-10-08T17:26:27.507Z,11.70
2022-10-08T17:28:54.853Z,11.50
2022-10-08T17:31:26.541Z,11.40
2022-10-08T17:33:53.530Z,11.20
2022-10-08T17:36:23.155Z,11.10
2022-10-08T17:38:52.702Z,10.90
2022-10-08T17:41:31.049Z,10.90
2022-10-08T17:44:00.190Z,10.80
2022-10-08T17:46:32.885Z,10.80
2022-10-08T17:48:59.830Z,10.70
2022-10-08T17:51:28.088Z,10.60
2022-10-08T17:53:57.314Z,10.50
2022-10-08T17:56:24.675Z,10.50
2022-10-08T17:58:52.122Z,10.40
2022-10-08T18:01:24.331Z,10.30
2022-10-08T18:03:53.558Z,10.10
2022-10-08T18:06:20.778Z,10.00
2022-10-08T18:08:47.371Z,10.00
2022-10-08T18:11:16.139Z,9.90
2022-10-08T18:13:42.762Z,9.90
2022-10-08T18:16:12.378Z,9.90
2022-10-08T18:18:39.659Z,9.90
2022-10-08T18:21:06.818Z,9.90
2022-10-08T18:23:36.050Z,9.90
2022-10-08T18:26:14.481Z,10.00
2022-10-08T18:28:41.454Z,9.90
2022-10-08T18:31:09.774Z,9.80
2022-10-08T18:33:39.462Z,9.60
2022-10-08T18:36:20.417Z,9.50
2022-10-08T18:38:48.817Z,9.40
2022-10-08T18:41:19.332Z,9.30
2022-10-08T18:43:47.615Z,9.30
2022-10-08T18:46:15.867Z,9.30
2022-10-08T18:48:42.688Z,9.30
2022-10-08T18:51:21.609Z,9.20
2022-10-08T18:53:49.574Z,9.10
2022-10-08T18:56:20.870Z,9.10
2022-10-08T18:58:49.576Z,9.10
2022-10-08T19:01:19.101Z,9.10
2022-10-08T19:03:51.378Z,9.10
2022-10-08T19:06:19.855Z,9.20
2022-10-08T19:08:47.061Z,9.20
2022-10-08T19:11:22.150Z,9.20
2022-10-08T19:13:49.737Z,9.30
2022-10-08T19:16:16.358Z,9.30
2022-10-08T19:18:45.066Z,9.20
2022-10-08T19:21:13.285Z,9.20
2022-10-08T19:23:40.308Z,9.30
2022-10-08T19:26:07.078Z,9.20
2022-10-08T19:28:36.921Z,9.20
2022-10-08T19:31:18.178Z,9.20
2022-10-08T19:33:51.314Z,9.20
2022-10-08T19:36:18.995Z,9.10
2022-10-08T19:39:00.533Z,9.10
2022-10-08T19:41:27.942Z,9.10
2022-10-08T19:43:55.595Z,9.10
2022-10-08T19:46:23.024Z,9.10
2022-10-08T19:48:55.971Z,9.00
2022-10-08T19:51:23.889Z,9.00
2022-10-08T19:53:50.992Z,8.90
2022-10-08T19:56:18.248Z,8.90
2022-10-08T19:58:48.762Z,8.80
2022-10-08T20:01:18.625Z,8.80
2022-10-08T20:03:45.942Z,8.70
2022-10-08T20:06:24.216Z,8.60
2022-10-08T20:08:54.668Z,8.60
2022-10-08T20:11:22.200Z,8.60
2022-10-08T20:13:50.339Z,8.50
2022-10-08T20:16:22.695Z,8.60
2022-10-08T20:18:55.022Z,8.70
2022-10-08T20:21:22.377Z,8.60
2022-10-08T20:23:49.108Z,8.50
2022-10-08T20:26:20.088Z,8.50
2022-10-08T20:28:48.991Z,8.50
2022-10-08T20:31:40.453Z,8.40
2022-10-08T20:34:11.215Z,8.30
2022-10-08T20:36:38.061Z,8.20
2022-10-08T20:39:05.297Z,8.00
2022-10-08T20:41:32.108Z,7.90
2022-10-08T20:44:03.388Z,7.80
2022-10-08T20:46:31.144Z,7.70
2022-10-08T20:48:58.115Z,7.70
2022-10-08T20:51:26.517Z,7.80
2022-10-08T20:53:55.774Z,7.80
2022-10-08T20:56:22.903Z,7.80
2022-10-08T20:58:50.147Z,7.80
2022-10-08T21:01:25.044Z,7.80
2022-10-08T21:03:52.396Z,7.80
2022-10-08T21:06:21.835Z,7.70
2022-10-08T21:08:50.670Z,7.60
2022-10-08T21:11:25.994Z,7.50
2022-10-08T21:13:53.355Z,7.40
2022-10-08T21:16:26.108Z,7.40
2022-10-08T21:18:59.140Z,7.40
2022-10-08T21:21:26.783Z,7.30
2022-10-08T21:23:53.646Z,7.40
2022-10-08T21:26:28.704Z,7.30
2022-10-08T21:28:58.046Z,7.30
2022-10-08T21:31:25.834Z,7.30
2022-10-08T21:33:53.857Z,7.30
2022-10-08T21:36:29.818Z,7.30
2022-10-08T21:38:56.465Z,7.30
2022-10-08T21:41:24.663Z,7.20
2022-10-08T21:43:54.073Z,7.10
2022-10-08T21:46:24.643Z,7.10
2022-10-08T21:48:59.213Z,7.10
2022-10-08T21:51:27.471Z,7.00
2022-10-08T21:53:56.572Z,7.10
2022-10-08T21:56:25.379Z,7.00
2022-10-08T21:58:58.070Z,6.90
2022-10-08T22:01:26.218Z,6.90
2022-10-08T22:03:59.193Z,6.90
2022-10-08T22:06:27.658Z,6.80
2022-10-08T22:08:54.293Z,6.80
2022-10-08T22:11:21.536Z,6.80
2022-10-08T22:13:48.601Z,6.80
2022-10-08T22:16:17.924Z,6.70
2022-10-08T22:18:45.154Z,6.70
2022-10-08T22:21:22.299Z,6.70
2022-10-08T22:23:49.542Z,6.80
2022-10-08T22:26:19.470Z,6.80
2022-10-08T22:28:46.392Z,6.80
2022-10-08T22:31:14.917Z,6.70
2022-10-08T22:33:41.977Z,6.70
2022-10-08T22:36:12.770Z,6.60
2022-10-08T22:38:42.062Z,6.60
2022-10-08T22:41:23.561Z,6.60
2022-10-08T22:43:50.832Z,6.50
2022-10-08T22:46:20.244Z,6.50
2022-10-08T22:48:47.717Z,6.50
2022-10-08T22:51:17.393Z,6.40
2022-10-08T22:53:44.158Z,6.30
2022-10-08T22:56:13.820Z,6.30
2022-10-08T22:58:40.353Z,6.20
2022-10-08T23:01:09.792Z,6.30
2022-10-08T23:03:37.038Z,6.30
2022-10-08T23:06:06.938Z,6.30
2022-10-08T23:08:34.986Z,6.30
2022-10-08T23:11:02.011Z,6.30
2022-10-08T23:13:29.465Z,6.30
2022-10-08T23:16:10.803Z,6.30
2022-10-08T23:18:40.131Z,6.30
2022-10-08T23:21:09.526Z,6.20
2022-10-08T23:23:36.598Z,6.30
2022-10-08T23:26:05.538Z,6.20
2022-10-08T23:28:33.799Z,6.20
2022-10-08T23:31:15.547Z,6.20
2022-10-08T23:33:45.244Z,6.20
2022-10-08T23:36:22.166Z,6.20
2022-10-08T23:38:48.916Z,6.10
2022-10-08T23:41:15.648Z,6.10
2022-10-08T23:43:47.022Z,6.00
2022-10-08T23:46:16.293Z,6.10
2022-10-08T23:48:43.233Z,6.20
2022-10-08T23:51:10.802Z,6.20
2022-10-08T23:53:38.207Z,6.30
2022-10-08T23:56:05.539Z,6.40
2022-10-08T23:58:32.606Z,6.40
